Time;durP1;ratioP1;P1;durP2;ratioP2;P2;SDS_P1;SDS_P2;PMS_P1;PMS_P2;Temp;Humidity;BMP_temperature;BMP_pressure;BME280_temperature;BME280_humidity;BME280_pressure;Samples;Min_cycle;Max_cycle;Signal;HPM_P1;HPM_P2
2022/09/26 00:00:16;;;;;;;18.33;3.23;;;12.50;99.90;;;;;;5235199;28;20198;-50
2022/09/26 00:02:47;;;;;;;6.03;3.13;;;12.40;99.90;;;;;;5239649;28;20234;-50
2022/09/26 00:05:17;;;;;;;3.23;3.03;;;12.60;99.90;;;;;;5238904;28;20170;-50
2022/09/26 00:07:48;;;;;;;4.53;2.53;;;12.40;99.90;;;;;;5245095;28;20573;-49
2022/09/26 00:10:19;;;;;;;4.07;3.20;;;12.30;99.90;;;;;;5246123;28;20201;-50
2022/09/26 00:12:50;;;;;;;3.23;2.33;;;12.30;99.90;;;;;;5248525;28;20225;-50
2022/09/26 00:15:20;;;;;;;2.90;2.70;;;12.30;99.90;;;;;;5245423;28;20944;-50
2022/09/26 00:17:51;;;;;;;3.43;2.50;;;12.30;99.90;;;;;;5239235;28;20213;-49
2022/09/26 00:20:22;;;;;;;2.30;1.73;;;12.30;99.90;;;;;;5241925;28;20588;-49
2022/09/26 00:22:52;;;;;;;3.20;2.37;;;12.30;99.90;;;;;;5224462;28;20316;-50
2022/09/26 00:25:23;;;;;;;3.10;2.90;;;12.10;99.90;;;;;;5258171;28;20182;-49
2022/09/26 00:27:53;;;;;;;6.43;2.80;;;12.20;99.90;;;;;;5246739;28;20181;-47
2022/09/26 00:30:24;;;;;;;2.43;2.23;;;12.20;99.90;;;;;;5240890;28;20355;-49
2022/09/26 00:32:54;;;;;;;4.20;2.50;;;12.20;99.90;;;;;;5242477;28;20201;-50
2022/09/26 00:35:25;;;;;;;2.60;2.37;;;12.20;99.90;;;;;;5238191;28;20194;-50
2022/09/26 00:37:55;;;;;;;3.60;2.50;;;12.10;99.90;;;;;;5230204;28;20217;-50
2022/09/26 00:40:26;;;;;;;3.53;2.60;;;12.10;99.90;;;;;;5215248;28;20540;-50
2022/09/26 00:42:57;;;;;;;3.20;2.90;;;12.10;99.90;;;;;;5245073;28;20216;-50
2022/09/26 00:45:30;;;;;;;4.13;2.30;;;12.10;99.90;;;;;;5241277;28;20444;-50
2022/09/26 00:48:04;;;;;;;3.23;2.50;;;12.10;99.90;;;;;;5242301;28;20929;-50
2022/09/26 00:50:37;;;;;;;3.53;2.30;;;12.10;99.90;;;;;;5239007;28;20460;-50
2022/09/26 00:53:10;;;;;;;2.87;2.77;;;12.10;99.90;;;;;;5250082;28;20444;-49
2022/09/26 00:55:47;;;;;;;2.87;2.67;;;12.10;99.90;;;;;;5245160;28;20491;-48
2022/09/26 00:58:24;;;;;;;9.63;3.20;;;12.00;99.90;;;;;;5228886;28;21006;-49
2022/09/26 01:00:56;;;;;;;4.17;2.40;;;12.00;99.90;;;;;;5246133;28;20470;-50
2022/09/26 01:03:29;;;;;;;3.33;3.13;;;12.00;99.90;;;;;;5251165;28;20770;-49
2022/09/26 01:06:00;;;;;;;5.50;2.63;;;12.00;99.90;;;;;;5239339;28;20444;-49
2022/09/26 01:08:37;;;;;;;5.20;3.20;;;12.00;99.90;;;;;;5244292;28;20776;-50
2022/09/26 01:11:09;;;;;;;3.17;2.83;;;12.00;99.90;;;;;;5249053;28;20815;-50
2022/09/26 01:13:41;;;;;;;6.43;2.70;;;11.90;99.90;;;;;;5249497;28;20442;-50
2022/09/26 01:16:12;;;;;;;3.80;2.50;;;11.80;99.90;;;;;;5245846;28;20437;-49
2022/09/26 01:18:44;;;;;;;3.27;3.07;;;11.80;99.90;;;;;;5250740;28;20462;-50
2022/09/26 01:21:49;;;;;;;3.40;3.20;;;11.70;99.90;;;;;;5245667;28;20244;-49
2022/09/26 01:24:52;;;;;;;9.53;3.63;;;11.70;99.90;;;;;;5240806;28;20475;-51
2022/09/26 01:27:47;;;;;;;4.83;2.70;;;11.70;99.90;;;;;;5249577;28;20439;-51
2022/09/26 01:30:27;;;;;;;2.70;2.50;;;11.80;99.90;;;;;;5239241;28;20826;-50
2022/09/26 01:33:13;;;;;;;6.03;3.57;;;11.70;99.90;;;;;;5240141;28;20440;-49
2022/09/26 01:36:04;;;;;;;2.60;2.40;;;11.80;99.90;;;;;;5245776;28;20459;-50
2022/09/26 01:38:43;;;;;;;5.60;2.70;;;11.90;99.90;;;;;;5239099;28;20549;-50
2022/09/26 01:41:47;;;;;;;3.43;2.60;;;11.90;99.90;;;;;;5246349;28;20456;-50
2022/09/26 01:44:46;;;;;;;5.63;2.50;;;11.90;99.90;;;;;;5251001;28;20468;-49
2022/09/26 01:47:21;;;;;;;3.23;2.93;;;11.90;99.90;;;;;;5242622;28;20444;-49
2022/09/26 01:49:59;;;;;;;2.20;2.10;;;11.90;99.90;;;;;;5247178;28;20435;-49
2022/09/26 01:52:51;;;;;;;3.53;2.33;;;11.90;99.90;;;;;;5249336;28;20493;-50
2022/09/26 01:55:48;;;;;;;2.43;2.23;;;11.90;99.90;;;;;;5242334;28;20444;-50
2022/09/26 01:58:32;;;;;;;4.67;2.60;;;11.90;99.90;;;;;;5230010;28;20484;-50
2022/09/26 02:01:07;;;;;;;3.93;2.00;;;11.90;99.90;;;;;;5244522;28;20499;-50
2022/09/26 02:03:44;;;;;;;3.17;2.70;;;11.90;99.90;;;;;;5242485;28;20441;-49
2022/09/26 02:06:21;;;;;;;2.37;2.20;;;11.90;99.90;;;;;;5241964;28;20917;-49
2022/09/26 02:09:06;;;;;;;4.10;2.53;;;11.90;99.90;;;;;;5245985;28;20472;-50
2022/09/26 02:11:40;;;;;;;3.47;2.10;;;11.90;99.90;;;;;;5247294;28;20456;-48
2022/09/26 02:14:35;;;;;;;4.00;2.60;;;11.90;99.90;;;;;;5244326;28;20483;-49
2022/09/26 02:17:11;;;;;;;2.60;2.40;;;11.90;99.90;;;;;;5240497;28;20971;-50
2022/09/26 02:19:48;;;;;;;2.50;2.30;;;11.90;99.90;;;;;;5245639;28;20436;-50
2022/09/26 02:22:19;;;;;;;6.60;2.43;;;11.90;99.90;;;;;;5250219;28;20451;-49
2022/09/26 02:24:49;;;;;;;3.17;2.27;;;11.90;99.90;;;;;;5248921;28;20440;-50
2022/09/26 02:27:20;;;;;;;2.70;2.53;;;11.80;99.90;;;;;;5234807;28;20544;-51
2022/09/26 02:29:51;;;;;;;4.30;2.83;;;11.90;99.90;;;;;;5247881;28;20182;-50
2022/09/26 02:32:28;;;;;;;3.20;2.57;;;11.80;99.90;;;;;;5243961;28;20845;-49
2022/09/26 02:34:59;;;;;;;2.70;2.50;;;11.80;99.90;;;;;;5249293;28;20248;-48
2022/09/26 02:37:31;;;;;;;4.30;3.03;;;11.80;99.90;;;;;;5248804;28;20555;-50
2022/09/26 02:40:01;;;;;;;2.40;2.30;;;11.80;99.90;;;;;;5245810;28;20432;-50
2022/09/26 02:42:36;;;;;;;2.63;2.43;;;11.80;99.90;;;;;;5244091;28;20435;-49
2022/09/26 02:45:42;;;;;;;5.23;2.30;;;11.80;99.90;;;;;;5240470;28;20186;-50
2022/09/26 02:48:26;;;;;;;5.00;2.17;;;11.80;99.90;;;;;;5237507;28;20447;-49
2022/09/26 02:51:09;;;;;;;2.57;2.47;;;11.90;99.90;;;;;;5242948;28;20783;-50
2022/09/26 02:54:06;;;;;;;1.93;1.83;;;11.80;99.90;;;;;;5240067;28;20564;-49
2022/09/26 02:56:49;;;;;;;3.27;2.77;;;11.80;99.90;;;;;;5238605;28;20531;-51
2022/09/26 02:59:55;;;;;;;3.50;3.13;;;11.80;99.90;;;;;;5246700;28;20440;-51
2022/09/26 03:02:34;;;;;;;3.63;2.93;;;11.80;99.90;;;;;;5236551;28;20449;-49
2022/09/26 03:05:12;;;;;;;6.90;2.97;;;11.80;99.90;;;;;;5236917;28;20538;-50
2022/09/26 03:08:04;;;;;;;7.77;3.77;;;11.90;99.90;;;;;;5231266;28;20951;-49
2022/09/26 03:10:36;;;;;;;10.90;3.90;;;11.90;99.90;;;;;;5255028;28;20460;-50
2022/09/26 03:13:13;;;;;;;10.17;4.03;;;11.90;99.90;;;;;;5245189;28;20445;-50
2022/09/26 03:15:49;;;;;;;6.60;3.70;;;11.90;99.90;;;;;;5239005;28;20440;-50
2022/09/26 03:18:23;;;;;;;15.70;3.90;;;11.90;99.90;;;;;;5230124;28;20472;-50
2022/09/26 03:20:54;;;;;;;7.13;4.30;;;11.90;99.90;;;;;;5242197;28;20765;-49
2022/09/26 03:23:25;;;;;;;4.70;4.30;;;11.90;99.90;;;;;;5247511;28;20440;-51
2022/09/26 03:26:03;;;;;;;3.93;3.30;;;11.90;99.90;;;;;;5242516;28;20248;-50
2022/09/26 03:28:34;;;;;;;4.60;2.90;;;11.90;99.90;;;;;;5237176;28;20436;-49
2022/09/26 03:31:06;;;;;;;7.53;3.60;;;11.90;99.90;;;;;;5269992;22;20587;-48
2022/09/26 03:33:37;;;;;;;4.90;3.10;;;11.90;99.90;;;;;;5261849;28;20520;-47
2022/09/26 03:36:08;;;;;;;6.67;3.80;;;11.90;99.90;;;;;;5265647;28;20588;-48
2022/09/26 03:38:39;;;;;;;3.50;2.60;;;11.90;99.90;;;;;;5266453;28;20661;-47
2022/09/26 03:41:10;;;;;;;3.60;3.30;;;11.80;99.90;;;;;;5262305;28;20457;-49
2022/09/26 03:43:42;;;;;;;4.00;2.90;;;11.90;99.90;;;;;;5248237;28;20301;-49
2022/09/26 03:46:14;;;;;;;4.10;2.80;;;11.90;99.90;;;;;;5250672;28;20186;-47
2022/09/26 03:48:45;;;;;;;2.87;2.33;;;11.90;99.90;;;;;;5235787;28;20425;-55
2022/09/26 03:51:16;;;;;;;3.13;2.83;;;11.90;99.90;;;;;;5237260;28;20460;-47
2022/09/26 03:53:47;;;;;;;4.03;2.27;;;11.90;99.90;;;;;;5239169;28;20194;-49
2022/09/26 03:56:19;;;;;;;2.40;1.80;;;11.90;99.90;;;;;;5247598;28;20443;-46
2022/09/26 03:58:50;;;;;;;7.73;2.27;;;11.90;99.90;;;;;;5249686;28;20213;-47
2022/09/26 04:01:21;;;;;;;2.30;2.10;;;11.80;99.90;;;;;;5249160;28;20460;-47
2022/09/26 04:03:52;;;;;;;4.50;2.13;;;11.80;99.90;;;;;;5245461;28;20170;-47
2022/09/26 04:06:23;;;;;;;2.20;2.10;;;11.80;99.90;;;;;;5244694;28;20516;-47
2022/09/26 04:08:53;;;;;;;5.23;2.37;;;11.90;99.90;;;;;;5246138;28;20205;-50
2022/09/26 04:11:24;;;;;;;3.77;1.90;;;11.80;99.90;;;;;;5240121;28;20820;-47
2022/09/26 04:13:55;;;;;;;3.90;2.70;;;11.80;99.90;;;;;;5245771;28;20182;-47
2022/09/26 04:16:25;;;;;;;8.00;2.87;;;11.80;99.90;;;;;;5248361;28;20603;-47
2022/09/26 04:18:56;;;;;;;8.97;2.77;;;11.80;99.90;;;;;;5243697;28;20658;-47
2022/09/26 04:21:28;;;;;;;9.00;3.13;;;11.80;99.90;;;;;;5237437;28;20198;-47
2022/09/26 04:23:59;;;;;;;4.90;3.10;;;11.70;99.90;;;;;;5244754;28;20849;-47
2022/09/26 04:26:29;;;;;;;4.83;2.77;;;11.60;99.90;;;;;;5240929;28;20451;-46
2022/09/26 04:29:00;;;;;;;6.50;3.63;;;11.50;99.90;;;;;;5239374;28;20198;-47
2022/09/26 04:31:31;;;;;;;5.63;2.33;;;11.40;99.90;;;;;;5241767;28;20222;-48
2022/09/26 04:34:05;;;;;;;2.83;2.50;;;11.40;99.90;;;;;;5244658;28;20182;-47
2022/09/26 04:36:36;;;;;;;10.73;2.90;;;11.30;99.90;;;;;;5241582;28;20428;-47
2022/09/26 04:39:07;;;;;;;7.37;2.97;;;11.40;99.90;;;;;;5241621;28;20944;-47
2022/09/26 04:41:38;;;;;;;3.50;2.57;;;11.20;99.90;;;;;;5239841;28;20487;-48
2022/09/26 04:44:09;;;;;;;5.67;3.60;;;11.10;99.90;;;;;;5242416;28;20185;-47
2022/09/26 04:46:40;;;;;;;5.90;3.27;;;11.00;99.90;;;;;;5246101;28;20178;-48
2022/09/26 04:49:10;;;;;;;3.20;2.90;;;11.00;99.90;;;;;;5243757;28;20433;-47
2022/09/26 04:51:41;;;;;;;2.87;2.70;;;11.00;99.90;;;;;;5243132;28;20686;-47
2022/09/26 04:54:11;;;;;;;5.90;2.60;;;11.00;99.90;;;;;;5245770;28;20193;-47
2022/09/26 04:56:42;;;;;;;2.57;2.40;;;10.90;99.90;;;;;;5246317;28;20189;-52
2022/09/26 04:59:13;;;;;;;4.87;2.40;;;10.80;99.90;;;;;;5245478;28;20289;-47
2022/09/26 05:01:43;;;;;;;5.20;3.00;;;10.90;99.90;;;;;;5238583;28;20198;-53
2022/09/26 05:04:14;;;;;;;3.70;2.50;;;10.70;99.90;;;;;;5253470;28;20186;-48
2022/09/26 05:06:44;;;;;;;2.30;2.00;;;10.70;99.90;;;;;;5242389;28;20202;-47
2022/09/26 05:09:16;;;;;;;6.30;2.37;;;10.70;99.90;;;;;;5240185;28;20182;-47
2022/09/26 05:11:49;;;;;;;7.63;3.00;;;10.60;99.90;;;;;;5241187;28;20214;-46
2022/09/26 05:14:19;;;;;;;3.90;2.70;;;10.70;99.90;;;;;;5245519;28;20440;-48
2022/09/26 05:16:50;;;;;;;3.20;2.80;;;10.70;99.90;;;;;;5247912;28;20430;-49
2022/09/26 05:19:21;;;;;;;2.87;2.60;;;10.70;99.90;;;;;;5246929;28;20189;-54
2022/09/26 05:21:51;;;;;;;6.47;2.80;;;10.80;99.90;;;;;;5243965;28;20206;-48
2022/09/26 05:27:11;;;;;;;5.40;3.53;;;10.90;99.90;;;;;;5242172;28;20275;-49
2022/09/26 05:29:41;;;;;;;2.90;2.57;;;10.90;99.90;;;;;;5240285;28;20440;-49
2022/09/26 05:32:14;;;;;;;3.03;2.83;;;10.90;99.90;;;;;;5230593;28;20669;-52
2022/09/26 05:34:45;;;;;;;3.33;2.80;;;11.00;99.90;;;;;;5237720;28;20194;-48
2022/09/26 05:37:16;;;;;;;3.17;2.97;;;11.20;99.90;;;;;;5243339;28;20467;-48
2022/09/26 05:42:36;;;;;;;6.20;3.00;;;11.60;99.90;;;;;;5240984;28;20251;-51
2022/09/26 05:45:08;;;;;;;3.57;2.97;;;11.90;99.90;;;;;;5234333;28;20434;-49
2022/09/26 05:47:38;;;;;;;2.83;2.63;;;12.00;99.90;;;;;;5234541;28;20273;-48
2022/09/26 05:50:09;;;;;;;3.43;3.13;;;12.10;99.90;;;;;;5242995;28;20571;-52
2022/09/26 05:52:40;;;;;;;8.37;3.50;;;12.10;99.90;;;;;;5241823;28;20187;-49
2022/09/26 05:55:10;;;;;;;6.40;3.03;;;12.30;99.90;;;;;;5241333;28;20440;-49
2022/09/26 05:57:58;;;;;;;6.90;2.77;;;12.30;99.90;;;;;;5245661;28;20202;-48
2022/09/26 06:00:28;;;;;;;6.30;3.90;;;12.50;99.90;;;;;;5227990;28;20641;-48
2022/09/26 06:03:02;;;;;;;3.83;3.17;;;12.60;99.90;;;;;;5249241;28;20428;-49
2022/09/26 06:05:33;;;;;;;4.93;2.93;;;12.80;99.90;;;;;;5247993;28;20182;-49
2022/09/26 06:08:04;;;;;;;7.67;2.90;;;13.30;99.90;;;;;;5245918;28;20433;-49
2022/09/26 06:10:37;;;;;;;6.07;2.93;;;14.10;99.90;;;;;;5239471;28;20444;-50
2022/09/26 06:13:08;;;;;;;10.40;3.13;;;15.10;99.90;;;;;;5245589;28;20187;-51
2022/09/26 06:15:38;;;;;;;7.07;2.70;;;16.20;99.90;;;;;;5243941;28;20432;-49
2022/09/26 06:18:09;;;;;;;6.63;2.63;;;16.90;99.90;;;;;;5237140;28;20213;-51
2022/09/26 06:20:39;;;;;;;7.90;3.30;;;17.20;99.90;;;;;;5248036;28;20686;-49
2022/09/26 06:23:10;;;;;;;3.70;2.40;;;17.70;99.90;;;;;;5241274;28;20617;-48
2022/09/26 06:25:41;;;;;;;3.90;2.70;;;18.40;99.90;;;;;;5248037;28;20267;-50
2022/09/26 06:28:12;;;;;;;4.53;2.60;;;19.30;97.20;;;;;;5245575;28;20388;-50
2022/09/26 06:30:43;;;;;;;4.27;2.77;;;19.90;92.80;;;;;;5238087;28;20567;-49
2022/09/26 06:33:13;;;;;;;2.60;2.40;;;20.50;87.60;;;;;;5245159;28;20191;-48
2022/09/26 06:35:44;;;;;;;7.90;2.03;;;21.20;80.80;;;;;;5243976;28;20459;-49
2022/09/26 06:38:15;;;;;;;6.73;2.10;;;22.00;73.00;;;;;;5240549;28;20623;-50
2022/09/26 06:40:46;;;;;;;15.77;2.73;;;23.00;65.50;;;;;;5242427;28;20209;-48
2022/09/26 06:43:16;;;;;;;2.43;2.00;;;23.90;59.80;;;;;;5238000;28;20179;-52
2022/09/26 06:45:50;;;;;;;6.20;2.40;;;24.20;56.60;;;;;;5237600;28;20448;-50
2022/09/26 06:48:21;;;;;;;8.87;2.40;;;24.30;55.70;;;;;;5230059;28;20190;-47
2022/09/26 06:50:53;;;;;;;3.80;2.10;;;24.30;53.90;;;;;;5241403;28;20460;-48
2022/09/26 06:53:24;;;;;;;7.13;2.73;;;24.40;53.20;;;;;;5235403;28;21025;-49
2022/09/26 06:55:54;;;;;;;2.10;1.90;;;24.70;52.10;;;;;;5234649;28;20440;-51
2022/09/26 06:58:26;;;;;;;7.37;2.80;;;25.00;51.30;;;;;;5232678;28;20218;-49
2022/09/26 07:01:00;;;;;;;8.87;2.27;;;25.40;49.50;;;;;;5242892;28;20202;-49
2022/09/26 07:03:31;;;;;;;3.20;2.37;;;25.10;49.20;;;;;;5238871;28;20432;-49
2022/09/26 07:06:02;;;;;;;5.30;2.60;;;25.00;49.70;;;;;;5247958;28;20437;-49
2022/09/26 07:08:32;;;;;;;3.90;1.93;;;24.30;50.60;;;;;;5246901;28;20178;-48
2022/09/26 07:11:03;;;;;;;3.07;2.37;;;24.70;50.10;;;;;;5245142;28;20597;-51
2022/09/26 07:13:35;;;;;;;4.70;2.10;;;25.50;49.10;;;;;;5247209;28;20620;-48
2022/09/26 07:16:05;;;;;;;3.00;2.20;;;26.10;47.80;;;;;;5238575;28;20217;-50
2022/09/26 07:18:37;;;;;;;3.37;2.83;;;26.80;46.70;;;;;;5243161;28;20472;-48
2022/09/26 07:21:08;;;;;;;5.97;2.13;;;27.20;45.80;;;;;;5240448;28;20199;-52
2022/09/26 07:23:38;;;;;;;4.37;3.20;;;26.80;44.80;;;;;;5241482;28;22216;-49
2022/09/26 07:26:09;;;;;;;8.67;4.40;;;26.90;44.60;;;;;;5242411;28;20250;-48
2022/09/26 07:28:39;;;;;;;7.10;3.63;;;26.10;44.90;;;;;;5244250;28;20201;-50
2022/09/26 07:31:10;;;;;;;6.03;3.30;;;26.00;45.40;;;;;;5242113;28;20771;-48
2022/09/26 07:33:40;;;;;;;7.70;4.10;;;26.00;46.20;;;;;;5243107;28;20186;-50
2022/09/26 07:36:11;;;;;;;4.27;3.40;;;26.10;46.60;;;;;;5244233;28;20192;-51
2022/09/26 07:38:42;;;;;;;3.97;3.43;;;26.70;45.40;;;;;;5229773;28;20296;-49
2022/09/26 07:41:13;;;;;;;3.50;3.17;;;27.40;44.30;;;;;;5241006;28;20245;-49
2022/09/26 07:43:44;;;;;;;9.87;6.70;;;28.10;43.10;;;;;;5246616;28;20433;-52
2022/09/26 07:51:55;;;;;;;6.50;4.43;;;24.80;49.10;;;;;;5241940;28;20862;-49
2022/09/26 07:54:25;;;;;;;12.00;3.97;;;23.90;50.00;;;;;;5246589;28;20523;-49
2022/09/26 07:56:56;;;;;;;3.77;3.20;;;22.90;51.90;;;;;;5248724;28;20472;-49
2022/09/26 07:59:27;;;;;;;4.30;3.07;;;22.10;53.30;;;;;;5243155;28;20194;-48
2022/09/26 08:01:57;;;;;;;4.93;3.13;;;21.50;54.80;;;;;;5246096;28;20580;-49
2022/09/26 08:04:28;;;;;;;8.87;2.20;;;20.10;56.50;;;;;;5243500;28;20182;-48
2022/09/26 08:06:59;;;;;;;4.40;2.43;;;19.60;58.20;;;;;;5240437;28;20182;-48
2022/09/26 08:09:29;;;;;;;4.10;2.07;;;19.10;59.40;;;;;;5244363;28;20444;-48
2022/09/26 08:12:01;;;;;;;4.67;2.30;;;19.00;59.90;;;;;;5247145;28;20198;-49
2022/09/26 08:14:31;;;;;;;2.47;2.30;;;19.00;58.90;;;;;;5248457;28;20174;-49
2022/09/26 08:17:02;;;;;;;2.30;2.20;;;19.00;59.90;;;;;;5246639;28;20456;-48
2022/09/26 08:19:33;;;;;;;1.77;1.63;;;19.00;59.20;;;;;;5245999;28;20581;-49
2022/09/26 08:22:07;;;;;;;2.17;1.73;;;19.10;58.80;;;;;;5249555;28;20460;-48
2022/09/26 08:24:38;;;;;;;2.50;1.50;;;18.50;59.40;;;;;;5238987;28;20273;-47
2022/09/26 08:27:08;;;;;;;4.93;1.73;;;18.20;61.20;;;;;;5253574;28;20451;-48
2022/09/26 08:29:39;;;;;;;2.00;1.80;;;17.80;60.80;;;;;;5237644;28;20432;-49
2022/09/26 08:32:09;;;;;;;4.73;1.30;;;17.50;62.40;;;;;;5243129;28;20267;-48
2022/09/26 08:34:40;;;;;;;2.40;1.30;;;17.30;64.20;;;;;;5244418;28;20563;-49
2022/09/26 08:37:11;;;;;;;2.37;2.00;;;17.30;65.00;;;;;;5244173;28;20546;-49
2022/09/26 08:39:41;;;;;;;1.80;1.70;;;17.20;65.60;;;;;;5245316;28;20205;-51
2022/09/26 08:42:50;;;;;;;7.50;2.00;;;17.00;66.80;;;;;;5241253;28;20305;-51
2022/09/26 08:48:59;;;;;;;1.63;1.53;;;17.10;66.20;;;;;;5228342;28;20438;-50
2022/09/26 08:51:39;;;;;;;3.83;1.87;;;17.20;65.80;;;;;;5236057;28;20492;-47
2022/09/26 08:54:15;;;;;;;9.43;2.10;;;17.00;66.60;;;;;;5244651;28;21253;-48
2022/09/26 08:56:49;;;;;;;1.97;1.80;;;17.10;67.10;;;;;;5241942;28;20474;-49
2022/09/26 08:59:33;;;;;;;2.67;1.97;;;17.20;66.70;;;;;;5239372;28;20440;-48
2022/09/26 09:02:22;;;;;;;7.50;1.93;;;17.50;66.00;;;;;;5241569;28;20879;-49
2022/09/26 09:05:01;;;;;;;5.30;2.00;;;17.70;66.30;;;;;;5243905;28;20424;-49
2022/09/26 09:07:32;;;;;;;3.83;2.47;;;17.90;64.30;;;;;;5242204;28;20460;-48
2022/09/26 09:10:13;;;;;;;8.73;1.63;;;17.80;64.90;;;;;;5240670;28;20465;-48
2022/09/26 09:13:08;;;;;;;1.47;1.30;;;17.60;64.70;;;;;;5247394;28;20189;-48
2022/09/26 09:16:06;;;;;;;3.70;1.80;;;17.80;63.60;;;;;;5242036;28;20448;-48
2022/09/26 09:18:56;;;;;;;3.80;2.27;;;17.90;65.10;;;;;;5248048;28;20534;-49
2022/09/26 09:22:12;;;;;;;2.97;1.60;;;18.10;63.80;;;;;;5244233;28;20452;-49
2022/09/26 09:24:59;;;;;;;2.10;1.13;;;18.40;63.10;;;;;;5237355;28;20443;-47
2022/09/26 09:27:48;;;;;;;5.50;1.60;;;18.30;61.80;;;;;;5237260;28;20510;-47
2022/09/26 09:30:21;;;;;;;3.83;2.20;;;18.10;61.00;;;;;;5254615;28;20818;-48
2022/09/26 09:33:02;;;;;;;2.77;1.70;;;17.60;60.60;;;;;;5282958;22;20557;-53
2022/09/26 09:36:10;;;;;;;3.47;1.60;;;17.40;60.80;;;;;;5268593;28;20453;-50
2022/09/26 09:38:44;;;;;;;4.67;2.30;;;17.30;60.10;;;;;;5248883;28;20471;-49
2022/09/26 09:41:23;;;;;;;7.13;2.13;;;17.10;60.90;;;;;;5250620;28;20552;-50
2022/09/26 09:43:57;;;;;;;7.13;2.40;;;16.90;61.80;;;;;;5263260;28;20520;-48
2022/09/26 09:46:34;;;;;;;1.63;1.37;;;16.80;62.40;;;;;;5240937;28;20459;-49
2022/09/26 09:49:08;;;;;;;1.83;1.30;;;16.90;62.80;;;;;;5248070;28;20436;-49
2022/09/26 09:51:47;;;;;;;4.13;1.30;;;16.90;62.00;;;;;;5240840;28;20464;-49
2022/09/26 09:54:39;;;;;;;1.10;0.97;;;17.00;62.60;;;;;;5240720;28;20428;-50
2022/09/26 09:57:28;;;;;;;0.77;0.77;;;17.10;62.30;;;;;;5239835;28;20825;-48
2022/09/26 10:00:15;;;;;;;1.57;0.70;;;17.10;61.20;;;;;;5242478;28;20436;-50
2022/09/26 10:03:23;;;;;;;3.63;1.17;;;17.20;61.00;;;;;;5241863;28;20448;-49
2022/09/26 10:06:00;;;;;;;2.03;1.00;;;17.30;61.20;;;;;;5236172;28;20441;-49
2022/09/26 10:08:36;;;;;;;1.07;1.00;;;17.70;60.10;;;;;;5247071;28;20787;-49
2022/09/26 10:11:30;;;;;;;0.73;0.73;;;17.60;58.90;;;;;;5254359;28;20834;-48
2022/09/26 10:14:05;;;;;;;0.90;0.90;;;17.40;57.90;;;;;;5256543;28;20431;-49
2022/09/26 10:17:26;;;;;;;1.37;1.27;;;17.40;58.40;;;;;;5240560;28;20503;-48
2022/09/26 10:19:57;;;;;;;4.23;2.37;;;17.50;58.10;;;;;;5228082;28;20802;-49
2022/09/26 10:22:36;;;;;;;1.40;0.90;;;17.60;57.50;;;;;;5249160;28;20463;-49
2022/09/26 10:25:20;;;;;;;1.10;1.03;;;17.70;57.20;;;;;;5236859;28;20188;-50
2022/09/26 10:27:56;;;;;;;4.93;1.80;;;18.00;57.40;;;;;;5249154;28;20500;-51
2022/09/26 10:30:31;;;;;;;8.53;1.10;;;18.00;57.30;;;;;;5250185;28;20440;-55
2022/09/26 10:33:03;;;;;;;3.77;2.07;;;18.00;57.40;;;;;;5249749;28;20470;-49
2022/09/26 10:35:44;;;;;;;1.47;1.03;;;18.20;56.80;;;;;;5249049;28;20438;-48
2022/09/26 10:38:28;;;;;;;5.00;2.80;;;18.30;56.40;;;;;;5240862;28;20987;-49
2022/09/26 10:41:02;;;;;;;4.60;2.73;;;18.30;56.40;;;;;;5250534;28;20444;-48
2022/09/26 10:43:34;;;;;;;1.90;1.70;;;18.10;56.70;;;;;;5248028;28;20928;-51
2022/09/26 10:46:12;;;;;;;2.27;1.40;;;18.10;57.20;;;;;;5245132;28;20520;-49
2022/09/26 10:48:52;;;;;;;1.70;1.60;;;18.30;57.30;;;;;;5252673;28;20447;-50
2022/09/26 10:51:46;;;;;;;1.33;1.23;;;18.60;56.30;;;;;;5239801;28;20455;-49
2022/09/26 10:54:23;;;;;;;1.00;1.00;;;18.50;56.10;;;;;;5254902;28;20762;-50
2022/09/26 10:56:58;;;;;;;1.83;1.73;;;18.60;57.00;;;;;;5268839;28;20497;-50
2022/09/26 10:59:33;;;;;;;2.80;1.90;;;18.60;57.10;;;;;;5255713;28;20427;-49
2022/09/26 11:02:04;;;;;;;1.30;1.30;;;18.60;56.80;;;;;;5245939;28;20487;-48
2022/09/26 11:07:39;;;;;;;1.63;1.53;;;18.50;55.80;;;;;;5250131;28;20467;-49
2022/09/26 11:10:17;;;;;;;1.30;1.10;;;18.50;55.60;;;;;;5250655;28;20525;-49
2022/09/26 11:13:18;;;;;;;2.53;1.70;;;18.50;56.00;;;;;;5249495;28;20451;-49
2022/09/26 11:16:00;;;;;;;2.40;2.17;;;18.30;56.90;;;;;;5235861;28;20532;-51
2022/09/26 11:18:36;;;;;;;5.07;1.77;;;18.00;57.10;;;;;;5250490;28;20473;-50
2022/09/26 11:21:14;;;;;;;1.80;0.73;;;18.00;56.50;;;;;;5247694;28;20463;-48
2022/09/26 11:23:56;;;;;;;1.20;1.20;;;17.90;56.80;;;;;;5241981;28;20512;-49
2022/09/26 11:26:36;;;;;;;1.60;1.50;;;17.60;57.10;;;;;;5235081;28;20438;-50
2022/09/26 11:29:33;;;;;;;2.87;1.37;;;17.60;58.50;;;;;;5241527;28;20526;-50
2022/09/26 11:32:04;;;;;;;1.97;1.43;;;17.70;57.50;;;;;;5236322;28;20468;-51
2022/09/26 11:34:35;;;;;;;2.30;1.30;;;17.80;57.70;;;;;;5257072;28;20436;-49
2022/09/26 11:37:30;;;;;;;3.27;1.60;;;17.90;57.30;;;;;;5251552;28;20429;-50
2022/09/26 11:40:16;;;;;;;5.50;1.20;;;18.10;57.40;;;;;;5241434;28;20185;-50
2022/09/26 11:43:12;;;;;;;2.47;1.23;;;18.30;57.00;;;;;;5237087;28;20510;-50
2022/09/26 11:45:55;;;;;;;2.30;1.50;;;18.50;56.70;;;;;;5245142;28;20433;-53
2022/09/26 11:48:34;;;;;;;2.80;1.27;;;18.60;55.30;;;;;;5252356;28;20435;-51
2022/09/26 11:51:33;;;;;;;0.80;0.80;;;18.80;54.80;;;;;;5247704;28;20529;-49
2022/09/26 11:54:22;;;;;;;2.10;0.80;;;18.70;54.80;;;;;;5249899;28;20432;-49
2022/09/26 11:57:07;;;;;;;1.60;1.50;;;18.60;55.20;;;;;;5234652;28;20538;-49
2022/09/26 11:59:49;;;;;;;1.90;1.40;;;18.50;55.10;;;;;;5245464;28;20482;-50
2022/09/26 12:02:58;;;;;;;1.83;1.10;;;18.60;55.70;;;;;;5243562;28;20436;-50
2022/09/26 12:05:40;;;;;;;2.07;1.20;;;18.80;55.00;;;;;;5243812;28;20482;-48
2022/09/26 12:08:34;;;;;;;1.13;0.97;;;18.80;54.00;;;;;;5251111;28;20780;-50
2022/09/26 12:11:22;;;;;;;2.17;1.40;;;18.70;54.30;;;;;;5245580;28;20459;-48
2022/09/26 12:13:59;;;;;;;2.20;1.00;;;18.60;54.20;;;;;;5237568;28;20433;-48
2022/09/26 12:16:39;;;;;;;2.63;1.20;;;18.50;55.00;;;;;;5241172;28;20517;-49
2022/09/26 12:19:40;;;;;;;2.00;1.30;;;18.50;55.20;;;;;;5247378;28;20467;-50
2022/09/26 12:22:30;;;;;;;3.80;0.87;;;18.40;55.10;;;;;;5249662;28;20448;-50
2022/09/26 12:25:12;;;;;;;3.13;1.60;;;18.50;55.00;;;;;;5249792;28;20429;-51
2022/09/26 12:28:14;;;;;;;1.83;1.13;;;18.50;55.00;;;;;;5243272;28;20966;-50
2022/09/26 12:31:04;;;;;;;4.50;1.10;;;18.40;55.50;;;;;;5238514;28;20536;-50
2022/09/26 12:33:57;;;;;;;1.50;1.37;;;18.30;55.50;;;;;;5244499;28;20432;-49
2022/09/26 12:36:49;;;;;;;1.40;1.40;;;18.00;56.20;;;;;;5241998;28;20548;-51
2022/09/26 12:39:45;;;;;;;2.50;1.70;;;17.90;57.00;;;;;;5244680;28;20540;-49
2022/09/26 12:42:54;;;;;;;3.60;1.87;;;17.80;57.70;;;;;;5241427;28;20991;-49
2022/09/26 12:45:55;;;;;;;2.00;1.53;;;18.00;57.00;;;;;;5238489;28;20448;-48
2022/09/26 12:48:33;;;;;;;0.83;0.83;;;18.10;56.90;;;;;;5240781;28;20798;-50
2022/09/26 12:51:41;;;;;;;2.10;0.97;;;18.30;55.90;;;;;;5236346;28;20479;-51
2022/09/26 12:54:24;;;;;;;1.10;1.10;;;18.30;55.40;;;;;;5257469;28;20432;-49
2022/09/26 12:57:04;;;;;;;4.03;1.10;;;18.30;55.20;;;;;;5257416;28;20444;-49
2022/09/26 12:59:51;;;;;;;1.23;1.23;;;18.10;55.20;;;;;;5244039;28;20436;-50
2022/09/26 13:02:40;;;;;;;1.67;1.17;;;18.00;55.50;;;;;;5228891;28;20452;-50
2022/09/26 13:05:14;;;;;;;2.60;0.90;;;18.00;54.30;;;;;;5240139;28;20496;-50
2022/09/26 13:08:07;;;;;;;2.90;1.40;;;17.90;54.40;;;;;;5246930;28;20436;-50
2022/09/26 13:10:49;;;;;;;1.43;1.20;;;18.20;54.10;;;;;;5237519;28;20437;-49
2022/09/26 13:13:48;;;;;;;1.00;1.00;;;18.40;54.40;;;;;;5253485;28;20441;-49
2022/09/26 13:17:05;;;;;;;1.60;1.50;;;18.50;54.30;;;;;;5252747;28;20432;-49
2022/09/26 13:19:50;;;;;;;2.77;0.80;;;18.60;53.90;;;;;;5227603;28;20476;-51
2022/09/26 13:22:40;;;;;;;5.27;1.07;;;18.30;54.20;;;;;;5242081;28;20474;-50
2022/09/26 13:25:13;;;;;;;3.90;1.43;;;18.50;54.60;;;;;;5239846;28;20444;-50
2022/09/26 13:28:03;;;;;;;3.00;1.20;;;18.30;54.70;;;;;;5236406;28;20795;-50
2022/09/26 13:30:38;;;;;;;5.03;1.57;;;18.10;54.80;;;;;;5241402;28;20432;-49
2022/09/26 13:33:19;;;;;;;2.50;1.60;;;18.20;54.70;;;;;;5228953;28;20499;-51
2022/09/26 13:35:53;;;;;;;1.50;0.70;;;18.20;54.80;;;;;;5243532;28;20498;-51
2022/09/26 13:38:32;;;;;;;1.03;0.77;;;18.30;54.50;;;;;;5246527;28;20940;-51
2022/09/26 13:41:28;;;;;;;2.03;1.17;;;18.20;54.50;;;;;;5244791;28;20452;-50
2022/09/26 13:44:05;;;;;;;1.00;0.87;;;18.10;55.10;;;;;;5259031;28;20429;-49
2022/09/26 13:46:42;;;;;;;13.27;1.20;;;18.10;55.00;;;;;;5253380;28;20424;-48
2022/09/26 13:49:58;;;;;;;1.43;1.43;;;17.90;55.10;;;;;;5255003;28;20432;-50
2022/09/26 13:52:52;;;;;;;4.97;1.00;;;18.10;55.60;;;;;;5238783;28;20468;-48
2022/09/26 13:55:24;;;;;;;0.70;0.70;;;18.30;55.70;;;;;;5245478;28;20451;-50
2022/09/26 13:58:06;;;;;;;1.37;1.27;;;18.30;56.30;;;;;;5250980;28;20536;-50